Time;durP1;ratioP1;P1;durP2;ratioP2;P2;SDS_P1;SDS_P2;PMS_P1;PMS_P2;Temp;Humidity;BMP_temperature;BMP_pressure;BME280_temperature;BME280_humidity;BME280_pressure;Samples;Min_cycle;Max_cycle;Signal;HPM_P1;HPM_P2
2021/10/17 00:01:20;;;;;;;22.15;5.85;;;1.90;99.90;;;;;;5061279;28;20059;-69
2021/10/17 00:03:47;;;;;;;15.30;4.70;;;1.80;99.90;;;;;;5063368;28;20072;-69
2021/10/17 00:06:15;;;;;;;14.38;4.93;;;1.80;99.90;;;;;;5063356;28;20893;-70
2021/10/17 00:08:42;;;;;;;25.13;9.18;;;1.80;99.90;;;;;;5082023;28;20040;-70
2021/10/17 00:11:09;;;;;;;23.20;7.15;;;1.90;99.90;;;;;;5076444;28;20044;-70
2021/10/17 00:13:36;;;;;;;24.45;6.72;;;1.90;99.90;;;;;;5081100;28;20138;-70
2021/10/17 00:16:04;;;;;;;21.45;6.22;;;2.20;99.90;;;;;;5081818;28;20036;-70
2021/10/17 00:18:31;;;;;;;17.83;7.07;;;2.10;99.90;;;;;;5080626;28;20052;-70
2021/10/17 00:20:58;;;;;;;15.88;5.85;;;2.00;99.90;;;;;;5071567;28;20675;-70
2021/10/17 00:23:24;;;;;;;21.50;7.88;;;2.00;99.90;;;;;;5074010;28;20123;-70
2021/10/17 00:25:51;;;;;;;21.23;8.85;;;2.00;99.90;;;;;;5103514;27;20070;-70
2021/10/17 00:28:18;;;;;;;20.02;7.22;;;2.00;99.90;;;;;;5103706;28;20058;-70
2021/10/17 00:30:51;;;;;;;17.65;5.93;;;1.90;99.90;;;;;;5091856;28;20641;-70
2021/10/17 00:33:19;;;;;;;16.25;4.85;;;1.90;99.90;;;;;;5062201;28;20055;-70
2021/10/17 00:35:46;;;;;;;14.32;5.18;;;1.90;99.90;;;;;;5062331;28;20128;-70
2021/10/17 00:38:13;;;;;;;15.60;4.80;;;1.90;99.90;;;;;;5063852;28;20063;-70
2021/10/17 00:40:40;;;;;;;14.60;5.25;;;1.80;99.90;;;;;;5060785;28;20056;-70
2021/10/17 00:43:07;;;;;;;13.50;5.28;;;1.80;99.90;;;;;;5043184;28;20044;-70
2021/10/17 00:45:36;;;;;;;13.10;4.70;;;1.70;99.90;;;;;;5062175;28;20036;-70
2021/10/17 00:48:04;;;;;;;14.25;5.32;;;1.70;99.90;;;;;;5082639;28;20155;-70
2021/10/17 00:50:31;;;;;;;18.35;5.95;;;1.60;99.90;;;;;;5081501;28;20040;-70
2021/10/17 00:52:58;;;;;;;16.90;7.65;;;1.80;99.90;;;;;;5081132;28;20360;-70
2021/10/17 00:55:28;;;;;;;20.00;8.82;;;1.70;99.90;;;;;;5064053;28;20558;-70
2021/10/17 00:58:17;;;;;;;19.38;8.77;;;1.80;99.90;;;;;;5081923;28;20468;-70
2021/10/17 01:00:44;;;;;;;14.05;6.13;;;1.70;99.90;;;;;;5061567;28;20133;-70
2021/10/17 01:03:11;;;;;;;21.33;6.25;;;1.70;99.90;;;;;;5060571;28;20048;-70
2021/10/17 01:05:39;;;;;;;16.13;5.32;;;1.80;99.90;;;;;;5061394;28;20036;-70
2021/10/17 01:08:06;;;;;;;12.30;5.50;;;1.80;99.90;;;;;;5070126;28;20066;-70
2021/10/17 01:10:33;;;;;;;17.55;6.20;;;1.80;99.90;;;;;;5052170;28;20473;-68
2021/10/17 01:12:59;;;;;;;18.77;5.35;;;1.90;99.90;;;;;;5085572;28;20056;-70
2021/10/17 01:15:30;;;;;;;16.13;5.82;;;1.90;99.90;;;;;;5079250;28;20512;-68
2021/10/17 01:17:57;;;;;;;13.43;5.75;;;1.90;99.90;;;;;;5072990;28;20727;-68
2021/10/17 01:20:24;;;;;;;11.80;5.15;;;1.90;99.90;;;;;;5080984;28;20131;-68
2021/10/17 01:22:53;;;;;;;13.35;5.53;;;1.90;99.90;;;;;;5096446;28;20047;-68
2021/10/17 01:25:20;;;;;;;13.93;5.45;;;1.90;99.90;;;;;;5100634;28;20083;-68
2021/10/17 01:27:47;;;;;;;13.82;5.75;;;1.90;99.90;;;;;;5085208;28;20055;-68
2021/10/17 01:30:16;;;;;;;12.88;6.45;;;2.10;99.90;;;;;;5042885;28;20040;-69
2021/10/17 01:32:46;;;;;;;14.48;8.02;;;2.10;99.90;;;;;;5044210;28;20052;-70
2021/10/17 01:35:13;;;;;;;18.83;8.20;;;2.20;99.90;;;;;;5060944;28;20052;-68
2021/10/17 01:37:41;;;;;;;20.83;7.68;;;2.10;99.90;;;;;;5061394;28;20532;-68
2021/10/17 01:40:08;;;;;;;21.40;8.00;;;2.20;99.90;;;;;;5059751;28;20422;-67
2021/10/17 01:42:36;;;;;;;18.10;8.18;;;2.20;99.90;;;;;;5063819;28;20154;-68
2021/10/17 01:45:03;;;;;;;17.85;8.07;;;2.10;99.90;;;;;;5060929;28;20051;-68
2021/10/17 01:47:30;;;;;;;22.63;8.43;;;2.10;99.90;;;;;;5076420;28;20040;-68
2021/10/17 01:49:57;;;;;;;24.98;9.88;;;2.30;99.90;;;;;;5067892;28;20057;-68
2021/10/17 01:52:24;;;;;;;23.10;8.32;;;2.20;99.90;;;;;;5055835;28;20062;-68
2021/10/17 01:54:53;;;;;;;15.32;7.55;;;2.20;99.90;;;;;;5059142;28;20139;-68
2021/10/17 01:57:22;;;;;;;21.67;7.85;;;2.20;99.90;;;;;;5047311;28;20101;-68
2021/10/17 01:59:49;;;;;;;16.90;6.75;;;2.20;99.90;;;;;;5069335;28;20141;-70
2021/10/17 02:02:31;;;;;;;16.67;6.57;;;2.10;99.90;;;;;;5068557;28;20141;-69
2021/10/17 02:04:58;;;;;;;15.98;6.90;;;2.10;99.90;;;;;;5063944;28;20055;-70
2021/10/17 02:07:25;;;;;;;16.83;6.68;;;2.10;99.90;;;;;;5058875;28;20080;-70
2021/10/17 02:09:52;;;;;;;17.92;7.38;;;2.20;99.90;;;;;;5056661;28;20048;-68
2021/10/17 02:12:21;;;;;;;19.73;7.00;;;2.20;99.90;;;;;;5060207;28;20049;-68
2021/10/17 02:14:48;;;;;;;16.02;7.55;;;2.20;99.90;;;;;;5060641;28;20061;-68
2021/10/17 02:17:17;;;;;;;16.42;7.78;;;2.20;99.90;;;;;;5042750;28;20255;-68
2021/10/17 02:19:46;;;;;;;21.45;8.85;;;2.20;99.90;;;;;;5072967;28;20062;-68
2021/10/17 02:22:13;;;;;;;13.60;7.60;;;2.20;99.90;;;;;;5071996;28;20056;-68
2021/10/17 02:24:40;;;;;;;20.00;7.22;;;2.20;99.90;;;;;;5080877;28;20056;-68
2021/10/17 02:27:06;;;;;;;17.65;6.22;;;2.20;99.90;;;;;;5079831;28;20052;-68
2021/10/17 02:29:38;;;;;;;15.40;7.38;;;2.20;99.90;;;;;;5080145;28;20488;-68
2021/10/17 02:32:34;;;;;;;20.70;7.50;;;2.30;99.90;;;;;;5051938;28;20048;-68
2021/10/17 02:35:10;;;;;;;11.98;6.85;;;2.20;99.90;;;;;;5059402;28;20105;-68
2021/10/17 02:37:36;;;;;;;15.95;7.57;;;2.20;99.90;;;;;;5073931;28;20545;-68
2021/10/17 02:40:04;;;;;;;22.83;9.48;;;2.40;99.90;;;;;;5079160;28;20052;-69
2021/10/17 02:42:32;;;;;;;24.27;10.20;;;2.40;99.90;;;;;;5059880;28;20432;-70
2021/10/17 02:44:59;;;;;;;31.85;10.88;;;2.50;99.90;;;;;;5053079;28;20048;-70
2021/10/17 02:47:27;;;;;;;34.33;12.13;;;2.50;99.90;;;;;;5058767;28;20051;-70
2021/10/17 02:49:55;;;;;;;26.20;12.15;;;2.60;99.90;;;;;;5063091;28;20161;-70
2021/10/17 02:52:26;;;;;;;21.50;9.50;;;2.50;99.90;;;;;;5042178;28;20394;-70
2021/10/17 02:54:52;;;;;;;34.35;14.48;;;2.60;99.90;;;;;;5058454;28;20060;-68
2021/10/17 02:57:20;;;;;;;32.08;12.80;;;2.70;99.90;;;;;;5073145;28;20055;-68
2021/10/17 02:59:47;;;;;;;30.65;11.52;;;2.70;99.90;;;;;;5062815;28;20071;-68
2021/10/17 03:02:15;;;;;;;24.60;10.77;;;2.60;99.90;;;;;;5067414;28;20063;-68
2021/10/17 03:04:42;;;;;;;21.50;9.57;;;2.60;99.90;;;;;;5043104;28;20055;-68
2021/10/17 03:07:10;;;;;;;22.20;8.55;;;2.60;99.90;;;;;;5058471;28;20085;-68
2021/10/17 03:09:46;;;;;;;29.10;10.27;;;2.60;99.90;;;;;;5053854;28;20054;-68
2021/10/17 03:12:13;;;;;;;23.65;9.73;;;2.70;99.90;;;;;;5068445;28;20106;-68
2021/10/17 03:14:40;;;;;;;31.58;9.90;;;2.70;99.90;;;;;;5040197;28;20048;-68
2021/10/17 03:17:07;;;;;;;26.30;11.50;;;2.70;99.90;;;;;;5054479;28;20043;-68
2021/10/17 03:19:38;;;;;;;30.83;11.32;;;2.80;99.90;;;;;;5040798;28;20052;-71
2021/10/17 03:22:05;;;;;;;30.98;13.10;;;2.80;99.90;;;;;;5064001;28;20051;-68
2021/10/17 03:24:32;;;;;;;28.27;12.20;;;2.90;99.90;;;;;;5057099;28;20094;-67
2021/10/17 03:26:59;;;;;;;33.35;12.68;;;2.90;99.90;;;;;;5060250;28;20048;-68
2021/10/17 03:29:26;;;;;;;35.80;14.02;;;2.90;99.90;;;;;;5040356;28;20056;-69
2021/10/17 03:31:59;;;;;;;40.03;16.27;;;2.90;99.90;;;;;;5025316;28;20072;-68
2021/10/17 03:34:26;;;;;;;40.60;16.23;;;3.00;99.90;;;;;;5059335;28;20182;-68
2021/10/17 03:36:53;;;;;;;41.60;16.73;;;3.10;99.90;;;;;;5056606;28;20063;-70
2021/10/17 03:39:20;;;;;;;35.63;15.07;;;3.20;99.90;;;;;;5060157;28;20052;-68
2021/10/17 03:41:47;;;;;;;35.85;14.45;;;3.10;99.90;;;;;;5059314;28;20055;-68
2021/10/17 03:44:14;;;;;;;33.67;15.18;;;3.20;99.90;;;;;;5041711;28;20047;-68
2021/10/17 03:46:41;;;;;;;34.55;15.38;;;3.20;99.90;;;;;;5050836;28;20051;-68
2021/10/17 03:49:08;;;;;;;40.13;18.65;;;3.30;99.90;;;;;;5078182;28;20391;-68
2021/10/17 03:51:34;;;;;;;47.05;20.42;;;3.60;99.90;;;;;;5072843;28;20046;-68
2021/10/17 03:54:05;;;;;;;41.55;19.23;;;3.70;99.90;;;;;;5047427;28;20508;-68
2021/10/17 03:56:32;;;;;;;56.78;20.40;;;3.60;99.90;;;;;;5079822;28;20081;-68
2021/10/17 03:59:00;;;;;;;38.60;18.90;;;3.60;99.90;;;;;;5078498;28;20060;-68
2021/10/17 04:01:30;;;;;;;39.67;20.15;;;3.70;99.90;;;;;;5044672;28;20528;-68
2021/10/17 04:03:57;;;;;;;47.63;20.17;;;3.90;99.90;;;;;;5070470;28;20067;-68
2021/10/17 04:06:24;;;;;;;44.75;17.23;;;3.80;99.90;;;;;;5040463;28;20155;-68
2021/10/17 04:08:58;;;;;;;42.67;20.45;;;3.80;99.90;;;;;;5058638;28;20440;-68
2021/10/17 04:11:25;;;;;;;35.08;18.02;;;3.80;99.90;;;;;;5058415;28;20190;-68
2021/10/17 04:13:54;;;;;;;49.65;20.33;;;3.80;99.90;;;;;;5045662;28;20048;-68
2021/10/17 04:16:20;;;;;;;41.05;21.35;;;3.90;99.90;;;;;;5077439;28;20044;-68
2021/10/17 04:18:47;;;;;;;38.47;19.60;;;4.00;99.90;;;;;;5059755;28;20050;-69
2021/10/17 04:21:15;;;;;;;38.30;21.42;;;4.00;99.90;;;;;;5061114;28;20040;-69
2021/10/17 04:23:42;;;;;;;39.53;21.40;;;4.00;99.90;;;;;;5075628;28;20131;-68
2021/10/17 04:26:09;;;;;;;43.35;21.92;;;4.10;99.90;;;;;;5061220;28;20144;-68
2021/10/17 04:28:42;;;;;;;44.40;21.35;;;4.10;99.90;;;;;;5066727;28;20492;-68
2021/10/17 04:31:09;;;;;;;41.97;20.60;;;4.20;99.90;;;;;;5082465;28;20055;-68
2021/10/17 04:33:35;;;;;;;41.05;18.77;;;4.20;99.90;;;;;;5079433;28;20060;-68
2021/10/17 04:36:02;;;;;;;38.72;17.80;;;4.20;99.90;;;;;;5059431;28;20357;-68
2021/10/17 04:38:29;;;;;;;32.20;17.00;;;4.20;99.90;;;;;;5058453;28;20040;-68
2021/10/17 04:40:56;;;;;;;35.70;19.60;;;4.30;99.90;;;;;;5057938;28;20049;-68
2021/10/17 04:43:23;;;;;;;46.10;20.95;;;4.40;99.90;;;;;;5055817;28;20125;-68
2021/10/17 04:45:50;;;;;;;43.95;21.50;;;4.40;99.90;;;;;;5048653;28;20045;-68
2021/10/17 04:48:17;;;;;;;45.10;20.67;;;4.50;99.90;;;;;;5061615;28;20059;-69
2021/10/17 04:50:44;;;;;;;41.30;20.30;;;4.40;99.90;;;;;;5080007;28;20117;-68
2021/10/17 04:53:11;;;;;;;40.28;19.85;;;4.50;99.90;;;;;;5066345;28;20044;-68
2021/10/17 04:55:38;;;;;;;34.75;17.88;;;4.50;99.90;;;;;;5085616;28;20071;-69
2021/10/17 04:58:07;;;;;;;36.47;17.40;;;4.50;99.90;;;;;;5058029;28;20339;-69
2021/10/17 05:00:34;;;;;;;34.97;18.08;;;4.50;99.90;;;;;;5061773;28;20051;-69
2021/10/17 05:03:03;;;;;;;37.28;19.70;;;4.50;99.90;;;;;;5061085;28;20052;-70
2021/10/17 05:05:31;;;;;;;31.00;15.82;;;4.50;99.90;;;;;;5061697;28;20048;-68
2021/10/17 05:08:00;;;;;;;42.85;18.83;;;4.60;99.90;;;;;;5085204;22;20187;-72
2021/10/17 05:10:30;;;;;;;35.97;18.73;;;4.60;99.90;;;;;;5026089;28;20526;-74
2021/10/17 05:12:57;;;;;;;30.30;17.30;;;4.70;99.90;;;;;;5029525;28;20057;-74
2021/10/17 05:15:24;;;;;;;42.63;19.25;;;4.80;99.90;;;;;;5042337;28;20094;-74
2021/10/17 05:17:51;;;;;;;45.47;18.50;;;4.80;99.90;;;;;;5009902;28;20067;-74
2021/10/17 05:20:18;;;;;;;35.63;19.23;;;4.80;99.90;;;;;;5014504;28;20072;-74
2021/10/17 05:22:45;;;;;;;34.25;19.77;;;4.90;99.90;;;;;;5051336;28;20510;-75
2021/10/17 05:25:13;;;;;;;44.45;21.42;;;4.80;99.90;;;;;;5048904;28;20443;-72
2021/10/17 05:27:41;;;;;;;40.90;21.55;;;4.70;99.90;;;;;;5016944;28;20102;-72
2021/10/17 05:30:08;;;;;;;36.80;20.75;;;4.80;99.90;;;;;;5031340;28;20071;-73
2021/10/17 05:32:35;;;;;;;51.97;28.33;;;4.80;99.90;;;;;;5014010;28;20045;-72
2021/10/17 05:35:02;;;;;;;51.08;24.83;;;4.90;99.90;;;;;;5010227;28;20416;-73
2021/10/17 05:37:29;;;;;;;49.85;23.10;;;5.10;99.90;;;;;;5025008;28;20057;-73
2021/10/17 05:39:56;;;;;;;43.25;22.10;;;5.00;99.90;;;;;;5009519;28;20045;-73
2021/10/17 05:42:23;;;;;;;45.70;21.63;;;5.10;99.90;;;;;;5008760;28;20056;-73
2021/10/17 05:44:50;;;;;;;42.42;21.60;;;5.00;99.90;;;;;;5019075;28;20049;-73
2021/10/17 05:47:18;;;;;;;41.80;20.60;;;4.90;99.90;;;;;;5043315;28;20567;-73
2021/10/17 05:49:46;;;;;;;43.75;21.17;;;4.90;99.90;;;;;;5035322;28;20060;-73
2021/10/17 05:52:13;;;;;;;41.97;22.08;;;4.90;99.90;;;;;;5027309;28;20073;-74
2021/10/17 05:54:40;;;;;;;43.25;24.65;;;5.10;99.90;;;;;;5030014;28;20298;-74
2021/10/17 05:57:08;;;;;;;44.08;23.13;;;5.00;99.90;;;;;;5012689;28;20052;-74
2021/10/17 05:59:35;;;;;;;46.45;23.30;;;5.00;99.90;;;;;;5030366;28;20068;-74
2021/10/17 06:02:02;;;;;;;38.72;21.85;;;4.90;99.90;;;;;;5027731;28;20048;-73
2021/10/17 06:04:34;;;;;;;38.80;20.35;;;4.90;99.90;;;;;;5012346;28;20041;-74
2021/10/17 06:07:05;;;;;;;42.25;21.77;;;5.10;99.90;;;;;;5022235;28;20494;-73
2021/10/17 06:09:36;;;;;;;41.70;23.00;;;5.10;99.90;;;;;;5028757;28;20055;-73
2021/10/17 06:12:05;;;;;;;52.42;29.27;;;5.10;99.90;;;;;;5027164;28;20053;-73
2021/10/17 06:14:34;;;;;;;46.30;26.08;;;5.10;99.90;;;;;;5028846;28;20569;-73
2021/10/17 06:17:02;;;;;;;61.38;30.05;;;5.10;99.90;;;;;;5021079;28;20048;-74
2021/10/17 06:19:29;;;;;;;45.10;25.50;;;5.30;99.90;;;;;;5044676;28;20089;-73
2021/10/17 06:21:57;;;;;;;50.90;28.15;;;5.30;99.90;;;;;;5038354;28;20069;-73
2021/10/17 06:24:24;;;;;;;47.97;25.55;;;5.10;99.90;;;;;;5011909;28;20049;-74
2021/10/17 06:26:53;;;;;;;45.25;24.92;;;5.20;99.90;;;;;;5028374;28;20412;-74
2021/10/17 06:29:20;;;;;;;44.40;23.90;;;5.30;99.90;;;;;;5012015;28;20045;-74
2021/10/17 06:31:46;;;;;;;55.92;32.97;;;5.30;99.90;;;;;;5011332;28;20041;-74
2021/10/17 06:34:14;;;;;;;107.40;78.10;;;5.40;99.90;;;;;;5027459;28;20045;-74
2021/10/17 06:36:41;;;;;;;49.00;26.58;;;5.40;99.90;;;;;;5045924;28;20506;-73
2021/10/17 06:39:08;;;;;;;38.47;23.17;;;5.50;99.90;;;;;;5028663;28;20529;-73
2021/10/17 06:41:35;;;;;;;45.33;21.63;;;5.50;99.90;;;;;;5027494;28;20434;-74
2021/10/17 06:44:13;;;;;;;38.25;21.48;;;5.60;99.90;;;;;;5010012;28;20144;-74
2021/10/17 06:46:41;;;;;;;39.97;23.27;;;5.70;99.90;;;;;;5032022;28;20052;-74
2021/10/17 06:49:08;;;;;;;37.50;22.88;;;5.60;99.90;;;;;;5047615;28;20436;-74
2021/10/17 06:51:35;;;;;;;42.75;24.70;;;5.70;99.90;;;;;;5041178;28;20037;-74
2021/10/17 06:54:02;;;;;;;42.97;23.42;;;5.70;99.90;;;;;;5032356;28;20049;-74
2021/10/17 06:56:29;;;;;;;44.25;25.77;;;5.80;99.90;;;;;;5010998;28;20114;-74
2021/10/17 06:58:56;;;;;;;49.67;26.77;;;5.90;99.90;;;;;;5027970;28;20129;-74
2021/10/17 07:01:23;;;;;;;46.50;27.38;;;5.90;99.90;;;;;;5011273;28;20098;-75
2021/10/17 07:03:54;;;;;;;47.30;27.30;;;6.00;99.90;;;;;;5011702;28;20045;-74
2021/10/17 07:06:27;;;;;;;53.13;29.50;;;6.00;99.90;;;;;;5015761;28;20078;-74
2021/10/17 07:09:06;;;;;;;44.35;26.75;;;6.00;99.90;;;;;;5013349;28;20626;-74
2021/10/17 07:11:43;;;;;;;48.55;25.17;;;6.00;99.90;;;;;;5010170;28;20321;-74
2021/10/17 07:14:28;;;;;;;38.75;24.33;;;6.20;99.90;;;;;;4998246;28;20452;-74
2021/10/17 07:17:15;;;;;;;38.60;25.23;;;6.40;99.90;;;;;;5014196;28;20136;-74
2021/10/17 07:19:42;;;;;;;37.10;26.40;;;6.50;99.90;;;;;;5007355;28;20087;-73
2021/10/17 07:22:09;;;;;;;48.13;28.88;;;6.60;99.90;;;;;;5007765;28;20057;-73
2021/10/17 07:24:42;;;;;;;42.67;27.50;;;6.60;99.90;;;;;;5027356;28;20124;-73
2021/10/17 07:27:09;;;;;;;48.30;30.25;;;6.60;99.90;;;;;;5019809;28;20053;-73
2021/10/17 07:29:38;;;;;;;45.80;29.13;;;6.70;99.90;;;;;;4991439;28;20152;-73
2021/10/17 07:32:05;;;;;;;55.08;30.48;;;6.70;99.90;;;;;;5024732;28;20068;-73
2021/10/17 07:34:33;;;;;;;42.50;27.60;;;6.80;99.90;;;;;;4995588;28;20049;-73
2021/10/17 07:37:00;;;;;;;47.10;30.05;;;6.90;99.90;;;;;;4997497;28;20037;-73
2021/10/17 07:39:31;;;;;;;46.83;30.48;;;6.90;99.90;;;;;;5026661;28;20133;-73
2021/10/17 07:41:59;;;;;;;49.33;30.10;;;7.20;99.90;;;;;;4991451;28;20046;-73
2021/10/17 07:44:27;;;;;;;40.75;26.65;;;7.20;99.90;;;;;;5008388;28;20111;-74
2021/10/17 07:46:58;;;;;;;38.08;24.20;;;7.10;99.90;;;;;;5025072;28;20068;-73
2021/10/17 07:49:28;;;;;;;39.03;25.10;;;7.20;99.90;;;;;;5047803;28;20079;-73
2021/10/17 07:51:56;;;;;;;36.38;24.65;;;7.30;99.90;;;;;;5022878;28;20114;-74
2021/10/17 07:54:24;;;;;;;30.90;21.42;;;7.40;99.90;;;;;;5016039;28;20060;-73
2021/10/17 07:56:50;;;;;;;37.08;22.88;;;7.50;99.90;;;;;;5037007;28;20119;-73
2021/10/17 07:59:21;;;;;;;29.67;22.50;;;7.60;99.90;;;;;;5008726;28;20083;-73
2021/10/17 08:01:49;;;;;;;31.17;21.80;;;7.50;99.90;;;;;;5045708;28;20049;-73
2021/10/17 08:04:27;;;;;;;32.20;21.55;;;7.70;99.90;;;;;;5011982;28;20483;-73
2021/10/17 08:07:20;;;;;;;35.95;25.58;;;7.70;99.90;;;;;;5055793;28;20072;-73
2021/10/17 08:09:48;;;;;;;42.05;24.90;;;7.90;99.90;;;;;;5027654;28;20431;-73
2021/10/17 08:12:16;;;;;;;37.70;22.42;;;8.10;99.90;;;;;;5026969;28;20341;-73
2021/10/17 08:14:43;;;;;;;32.95;20.13;;;8.20;99.90;;;;;;5010327;28;20164;-73
2021/10/17 08:17:11;;;;;;;24.08;16.33;;;8.20;99.90;;;;;;5041306;28;20036;-72
2021/10/17 08:20:13;;;;;;;28.98;15.65;;;8.20;99.90;;;;;;5036295;28;20041;-73
2021/10/17 08:22:41;;;;;;;28.65;14.55;;;8.20;99.90;;;;;;5031779;28;20533;-74
2021/10/17 08:25:10;;;;;;;29.23;15.93;;;8.20;99.90;;;;;;5046626;28;20072;-72
2021/10/17 08:27:40;;;;;;;25.45;15.55;;;8.40;99.90;;;;;;5038761;28;20060;-72
2021/10/17 08:30:09;;;;;;;24.45;14.05;;;8.40;99.90;;;;;;5021514;28;20037;-73
2021/10/17 08:32:44;;;;;;;30.55;15.77;;;8.50;99.90;;;;;;5032184;28;20049;-73
2021/10/17 08:35:13;;;;;;;50.45;34.95;;;8.50;99.90;;;;;;5015102;28;20049;-73
2021/10/17 08:37:43;;;;;;;31.25;19.10;;;8.50;99.90;;;;;;5015414;28;20288;-73
2021/10/17 08:40:12;;;;;;;25.27;15.45;;;8.50;99.90;;;;;;5011419;28;20118;-73
2021/10/17 08:42:58;;;;;;;31.00;13.57;;;8.60;99.90;;;;;;5029951;28;20049;-73
2021/10/17 08:45:30;;;;;;;24.10;13.30;;;8.80;99.90;;;;;;5029257;28;20049;-73
2021/10/17 08:48:02;;;;;;;23.23;12.88;;;8.90;99.90;;;;;;5042276;28;20060;-73
2021/10/17 08:50:36;;;;;;;32.05;13.88;;;9.00;99.90;;;;;;5019278;28;20049;-73
2021/10/17 08:53:03;;;;;;;32.97;17.00;;;9.10;99.90;;;;;;5030938;28;20064;-73
2021/10/17 08:55:47;;;;;;;32.30;16.88;;;9.10;99.90;;;;;;5032607;28;20045;-74
2021/10/17 08:58:29;;;;;;;26.73;17.35;;;9.10;99.90;;;;;;5000490;28;20041;-73
2021/10/17 09:01:46;;;;;;;31.20;20.20;;;9.20;99.90;;;;;;4987897;28;20045;-73
2021/10/17 09:04:26;;;;;;;25.75;16.35;;;9.30;99.90;;;;;;4982885;28;20049;-73
2021/10/17 09:07:16;;;;;;;30.77;21.92;;;9.40;99.90;;;;;;5017234;28;20045;-73
2021/10/17 09:10:19;;;;;;;33.28;18.85;;;9.50;99.90;;;;;;5000281;28;20471;-73
2021/10/17 09:12:50;;;;;;;35.13;23.60;;;9.50;99.90;;;;;;5016057;28;20508;-74
2021/10/17 09:15:23;;;;;;;39.35;25.48;;;9.50;99.90;;;;;;5034941;28;20292;-73
2021/10/17 09:18:09;;;;;;;46.55;27.20;;;9.70;99.90;;;;;;5010917;28;20506;-73
2021/10/17 09:21:10;;;;;;;31.98;19.60;;;9.80;99.90;;;;;;5001527;28;20313;-73
2021/10/17 09:23:40;;;;;;;33.78;22.33;;;9.70;99.90;;;;;;5010495;28;20123;-74
2021/10/17 09:26:18;;;;;;;27.58;13.10;;;9.80;99.90;;;;;;5014943;28;20083;-73
2021/10/17 09:28:50;;;;;;;23.85;13.35;;;9.90;99.90;;;;;;5000073;28;20052;-74
2021/10/17 09:31:20;;;;;;;23.05;12.35;;;10.00;99.90;;;;;;5013452;28;20056;-74
2021/10/17 09:33:57;;;;;;;22.05;12.50;;;10.00;99.90;;;;;;4999479;28;20052;-73
2021/10/17 09:36:33;;;;;;;25.00;14.18;;;10.00;99.90;;;;;;5002008;28;20056;-74
2021/10/17 09:39:15;;;;;;;23.27;12.75;;;10.00;99.90;;;;;;5034321;28;20049;-73
2021/10/17 09:42:07;;;;;;;27.20;13.18;;;10.30;99.90;;;;;;5032621;28;20049;-73
2021/10/17 09:44:48;;;;;;;20.90;12.90;;;10.40;99.90;;;;;;5002809;28;20095;-74
2021/10/17 09:47:22;;;;;;;24.35;12.85;;;10.40;99.90;;;;;;5012951;28;20051;-74
2021/10/17 09:50:11;;;;;;;21.80;12.50;;;10.30;99.90;;;;;;5015464;28;20466;-73
2021/10/17 09:53:00;;;;;;;23.42;13.45;;;10.40;99.90;;;;;;4992002;28;20277;-74
2021/10/17 09:55:54;;;;;;;19.38;12.15;;;10.40;99.90;;;;;;5018474;28;20107;-74
2021/10/17 09:58:26;;;;;;;22.55;12.43;;;10.40;99.90;;;;;;5005934;28;20578;-74
2021/10/17 10:01:01;;;;;;;21.70;13.35;;;10.50;99.90;;;;;;5013947;28;20072;-74
2021/10/17 10:03:35;;;;;;;22.98;13.90;;;10.70;99.90;;;;;;5056410;28;20037;-73
2021/10/17 10:06:03;;;;;;;27.05;14.70;;;10.70;99.90;;;;;;5029595;28;20109;-74
2021/10/17 10:08:31;;;;;;;21.77;13.35;;;10.90;99.90;;;;;;5027099;28;20079;-73
2021/10/17 10:11:00;;;;;;;22.35;15.20;;;11.00;99.90;;;;;;5036897;28;20099;-73
2021/10/17 10:13:28;;;;;;;33.00;17.17;;;11.10;99.90;;;;;;5034947;28;20143;-72
2021/10/17 10:15:56;;;;;;;23.63;16.98;;;11.10;99.90;;;;;;5053718;28;20045;-72
2021/10/17 10:18:28;;;;;;;27.10;14.68;;;11.20;99.90;;;;;;5054657;28;20115;-71
2021/10/17 10:20:59;;;;;;;18.88;12.48;;;11.20;99.90;;;;;;5052141;28;20069;-73
2021/10/17 10:23:38;;;;;;;24.98;15.95;;;11.20;99.90;;;;;;5042481;28;20045;-70
2021/10/17 10:26:06;;;;;;;20.60;14.07;;;11.20;99.90;;;;;;5036446;28;20045;-70
2021/10/17 10:28:45;;;;;;;24.67;14.45;;;11.30;99.90;;;;;;5029741;28;20055;-73
2021/10/17 10:31:45;;;;;;;22.25;14.38;;;11.30;99.90;;;;;;5004883;28;20049;-74
2021/10/17 10:34:36;;;;;;;19.98;11.88;;;11.30;99.90;;;;;;5016898;28;20040;-73
2021/10/17 10:37:20;;;;;;;16.80;11.85;;;11.40;99.90;;;;;;5027000;28;20048;-74
2021/10/17 10:39:59;;;;;;;27.95;13.23;;;11.40;99.90;;;;;;5026050;28;20080;-73
2021/10/17 10:42:41;;;;;;;29.70;16.92;;;11.50;99.90;;;;;;5025944;28;20152;-74
2021/10/17 10:45:37;;;;;;;23.70;15.15;;;11.50;99.90;;;;;;5006604;28;20103;-73
2021/10/17 10:48:13;;;;;;;16.83;11.68;;;11.60;99.90;;;;;;5018273;28;20051;-73
2021/10/17 10:50:50;;;;;;;19.92;13.90;;;11.70;99.90;;;;;;5006077;28;20041;-73
2021/10/17 10:53:54;;;;;;;20.88;14.40;;;11.80;99.90;;;;;;5001624;28;20041;-73
2021/10/17 10:56:56;;;;;;;18.95;12.32;;;11.90;99.90;;;;;;5013069;28;20048;-74
2021/10/17 10:59:53;;;;;;;18.20;12.13;;;11.80;99.90;;;;;;4992751;28;20045;-74
2021/10/17 11:02:24;;;;;;;14.10;11.45;;;11.70;99.90;;;;;;5009395;28;20049;-74
2021/10/17 11:04:51;;;;;;;13.98;11.18;;;11.70;99.90;;;;;;5010987;28;20049;-74
2021/10/17 11:07:39;;;;;;;13.75;10.82;;;11.70;99.90;;;;;;5028288;22;20141;-76
2021/10/17 11:10:21;;;;;;;;;;;11.70;99.90;;;;;;5044222;28;20055;-77
2021/10/17 11:12:50;;;;;;;16.98;12.00;;;11.70;99.90;;;;;;5022303;28;19923;-77
2021/10/17 11:15:22;;;;;;;23.42;14.57;;;11.80;99.90;;;;;;5066274;28;20044;-76
2021/10/17 11:17:56;;;;;;;19.00;13.73;;;11.90;99.90;;;;;;5063313;28;20043;-76
2021/10/17 11:20:25;;;;;;;16.17;12.85;;;11.90;99.90;;;;;;5066937;28;20227;-76
2021/10/17 11:22:56;;;;;;;20.15;12.35;;;11.80;99.90;;;;;;5049928;28;20051;-76
2021/10/17 11:25:25;;;;;;;16.38;11.32;;;11.80;99.90;;;;;;5029255;28;20051;-76
2021/10/17 11:27:53;;;;;;;13.93;11.18;;;11.90;99.90;;;;;;5062459;28;20079;-76
2021/10/17 11:30:20;;;;;;;19.42;11.48;;;11.80;99.90;;;;;;5066493;28;20066;-76
2021/10/17 11:32:47;;;;;;;23.98;11.82;;;11.80;99.90;;;;;;5049664;28;20047;-76
2021/10/17 11:35:13;;;;;;;14.07;10.95;;;11.80;99.90;;;;;;5065020;28;20087;-76
2021/10/17 11:37:40;;;;;;;13.05;10.85;;;11.80;99.90;;;;;;5047617;28;20411;-76
2021/10/17 11:40:11;;;;;;;11.50;10.18;;;11.80;99.90;;;;;;5049615;28;20417;-77
2021/10/17 11:42:52;;;;;;;16.20;12.40;;;12.00;99.90;;;;;;5052221;28;20535;-77
2021/10/17 11:45:31;;;;;;;17.80;12.45;;;12.20;99.90;;;;;;5035163;28;20060;-76
2021/10/17 11:48:01;;;;;;;19.23;11.80;;;12.40;99.90;;;;;;5048259;28;20083;-76
2021/10/17 11:50:34;;;;;;;16.40;11.32;;;12.50;99.90;;;;;;5045260;28;20052;-77
2021/10/17 11:53:03;;;;;;;14.77;10.35;;;12.50;99.90;;;;;;5046023;28;20134;-76
2021/10/17 11:55:40;;;;;;;14.18;11.52;;;12.70;99.90;;;;;;5055932;28;20613;-76
2021/10/17 11:58:16;;;;;;;12.90;11.57;;;12.70;99.90;;;;;;5085129;28;20121;-76
2021/10/17 12:00:46;;;;;;;11.10;9.75;;;12.70;99.90;;;;;;5036449;28;20105;-77
2021/10/17 12:03:16;;;;;;;12.23;9.98;;;12.60;99.90;;;;;;5090090;28;20051;-77
2021/10/17 12:05:44;;;;;;;11.07;10.27;;;12.50;99.90;;;;;;5067598;28;20048;-76
2021/10/17 12:08:24;;;;;;;14.45;11.88;;;12.50;99.90;;;;;;5070408;28;20032;-77
2021/10/17 12:11:10;;;;;;;12.70;10.65;;;12.40;99.90;;;;;;5070161;28;20044;-76
2021/10/17 12:13:59;;;;;;;11.07;9.98;;;12.50;99.90;;;;;;5074868;28;20051;-77
2021/10/17 12:16:28;;;;;;;11.60;10.25;;;12.60;99.90;;;;;;5031991;28;20075;-77
2021/10/17 12:18:59;;;;;;;12.00;10.70;;;12.60;99.90;;;;;;5041894;28;20443;-77
2021/10/17 12:21:28;;;;;;;12.77;11.55;;;12.70;99.90;;;;;;5028123;28;20045;-77
2021/10/17 12:23:59;;;;;;;11.95;11.25;;;12.80;99.90;;;;;;5030626;28;20072;-77
2021/10/17 12:26:31;;;;;;;12.80;11.70;;;12.90;99.90;;;;;;5049962;28;20078;-77
2021/10/17 12:29:14;;;;;;;13.50;12.15;;;13.00;99.90;;;;;;5074627;28;20040;-77
2021/10/17 12:31:43;;;;;;;15.55;13.05;;;13.10;99.90;;;;;;5065175;28;20045;-77
2021/10/17 12:34:11;;;;;;;13.10;11.88;;;13.30;99.90;;;;;;5046139;28;20467;-77
2021/10/17 12:36:39;;;;;;;17.95;12.75;;;13.20;99.90;;;;;;5048440;28;20129;-77
2021/10/17 12:39:10;;;;;;;15.43;12.15;;;13.20;99.90;;;;;;5038542;28;20572;-77
2021/10/17 12:41:37;;;;;;;14.65;12.27;;;13.10;99.90;;;;;;5061846;28;20048;-76
2021/10/17 12:44:06;;;;;;;13.52;12.13;;;13.00;99.90;;;;;;5068767;28;20628;-77
2021/10/17 12:46:34;;;;;;;13.93;12.82;;;13.10;99.90;;;;;;5046358;28;20048;-77
2021/10/17 12:49:35;;;;;;;14.13;12.80;;;13.10;99.90;;;;;;5068899;28;20063;-77
2021/10/17 12:52:02;;;;;;;13.98;12.57;;;13.00;99.90;;;;;;5052166;28;20048;-77
2021/10/17 12:54:30;;;;;;;16.55;14.85;;;13.00;99.90;;;;;;5069082;28;20052;-76
2021/10/17 12:57:02;;;;;;;16.05;14.55;;;12.90;99.90;;;;;;5082722;28;20040;-77